createdAt,value
2022-12-18T00:04:34.773Z,78155.53
2022-12-18T00:14:39.535Z,78147.44
2022-12-18T00:24:46.029Z,78141.34
2022-12-18T00:34:52.837Z,78153.50
2022-12-18T00:44:56.475Z,78143.38
2022-12-18T00:55:06.029Z,78147.44
2022-12-18T01:05:12.270Z,78159.59
2022-12-18T01:15:20.067Z,78147.44
2022-12-18T01:25:26.929Z,78139.34
2022-12-18T01:35:32.849Z,78159.59
2022-12-18T01:45:35.230Z,78202.09
2022-12-18T01:55:57.889Z,78204.13
2022-12-18T02:06:22.458Z,78204.13
2022-12-18T02:16:34.362Z,78216.28
2022-12-18T02:26:47.081Z,78212.22
2022-12-18T02:36:52.165Z,78218.31
2022-12-18T02:46:57.238Z,78244.63
2022-12-18T02:57:15.600Z,78264.88
2022-12-18T03:07:22.143Z,78287.16
2022-12-18T03:17:28.388Z,78289.19
2022-12-18T03:27:35.184Z,78299.31
2022-12-18T03:37:44.293Z,78321.59
2022-12-18T03:48:09.515Z,78327.66
2022-12-18T03:58:22.330Z,78347.91
2022-12-18T04:08:33.381Z,78384.38
2022-12-18T04:18:40.094Z,78378.28
2022-12-18T04:28:42.228Z,78354.00
2022-12-18T04:38:47.786Z,78362.09
2022-12-18T04:48:53.317Z,78378.28
2022-12-18T04:58:55.964Z,78384.38
2022-12-18T05:09:04.068Z,78437.03
2022-12-18T05:19:06.266Z,78471.44
2022-12-18T05:29:13.331Z,78479.56
2022-12-18T05:39:20.684Z,78501.81
2022-12-18T05:49:24.989Z,78526.13
2022-12-18T05:59:29.482Z,78564.59
2022-12-18T06:09:35.004Z,78580.81
2022-12-18T06:19:37.164Z,78603.09
2022-12-18T06:29:44.007Z,78611.19
2022-12-18T06:39:50.748Z,78597.00
2022-12-18T06:49:54.109Z,78601.06
2022-12-18T06:59:59.234Z,78609.16
2022-12-18T07:10:05.801Z,78607.13
2022-12-18T07:20:13.340Z,78611.19
2022-12-18T07:30:21.211Z,78599.03
2022-12-18T07:40:33.316Z,78586.88
2022-12-18T07:50:40.907Z,78584.88
2022-12-18T08:00:46.067Z,78576.75
2022-12-18T08:10:48.479Z,78605.13
2022-12-18T08:20:57.638Z,78586.88
2022-12-18T08:31:02.313Z,78586.88
2022-12-18T08:41:07.072Z,78578.78
2022-12-18T08:51:11.437Z,78568.66
2022-12-18T09:01:14.832Z,78560.56
2022-12-18T09:11:22.765Z,78580.81
2022-12-18T09:21:30.789Z,78560.56
2022-12-18T09:31:33.340Z,78538.28
2022-12-18T09:42:00.106Z,78483.59
2022-12-18T09:52:11.001Z,78503.84
2022-12-18T10:02:20.074Z,78507.91
2022-12-18T10:12:39.976Z,78530.19
2022-12-18T10:23:28.952Z,78532.22
2022-12-18T10:33:34.824Z,78540.31
2022-12-18T10:43:39.183Z,78522.09
2022-12-18T10:53:43.883Z,78528.16
2022-12-18T11:03:49.696Z,78511.97
2022-12-18T11:14:06.206Z,78503.84
2022-12-18T11:24:20.288Z,78518.03
2022-12-18T11:34:29.423Z,78493.72
2022-12-18T11:44:52.198Z,78461.31
2022-12-18T11:54:56.631Z,78439.06
2022-12-18T12:05:13.012Z,78402.59
2022-12-18T12:15:24.128Z,78447.16
2022-12-18T12:25:32.403Z,78453.22
2022-12-18T12:35:59.270Z,78483.59
2022-12-18T12:46:13.158Z,78497.78
2022-12-18T12:56:21.468Z,78489.69
2022-12-18T13:06:44.670Z,78495.75
2022-12-18T13:16:47.036Z,78495.75
2022-12-18T13:26:49.702Z,78406.66
2022-12-18T13:36:56.090Z,78422.84
2022-12-18T13:46:58.973Z,78396.53
2022-12-18T13:57:05.150Z,78520.06
2022-12-18T14:07:09.706Z,78580.81
2022-12-18T14:17:12.900Z,78625.38
2022-12-18T14:27:27.185Z,78645.63
2022-12-18T14:37:32.329Z,78649.66
2022-12-18T14:47:35.864Z,78671.94
2022-12-18T14:57:39.070Z,78659.78
2022-12-18T15:07:44.308Z,78655.75
2022-12-18T15:17:48.870Z,78669.91
2022-12-18T15:27:53.164Z,78673.97
2022-12-18T15:37:57.949Z,78700.31
2022-12-18T15:48:00.755Z,78694.22
2022-12-18T15:58:07.450Z,78694.22
2022-12-18T16:08:16.669Z,78682.06
2022-12-18T16:18:18.840Z,78690.19
2022-12-18T16:28:23.222Z,78708.41
2022-12-18T16:38:27.494Z,78716.50
2022-12-18T16:48:29.682Z,78773.22
2022-12-18T16:58:34.895Z,78827.91
2022-12-18T17:08:39.376Z,78811.69
2022-12-18T17:18:47.112Z,78836.00
2022-12-18T17:28:50.065Z,78836.00
2022-12-18T17:38:58.133Z,78854.22
2022-12-18T17:49:04.415Z,78860.31
2022-12-18T17:59:09.918Z,78856.25
2022-12-18T18:09:16.991Z,78860.31
2022-12-18T18:19:26.515Z,78868.41
2022-12-18T18:29:36.813Z,78862.34
2022-12-18T18:39:40.233Z,78921.06
2022-12-18T18:49:42.410Z,78957.53
2022-12-18T18:59:44.738Z,78969.69
2022-12-18T19:09:52.047Z,78943.34
2022-12-18T19:19:59.176Z,78929.16
2022-12-18T19:30:03.812Z,78949.44
2022-12-18T19:40:12.663Z,78973.72
2022-12-18T19:50:17.574Z,78998.03
2022-12-18T20:00:22.027Z,79008.16
2022-12-18T20:10:24.784Z,79066.91
2022-12-18T20:20:31.984Z,79046.66
2022-12-18T20:30:36.904Z,79060.81
2022-12-18T20:40:41.676Z,79054.75
2022-12-18T20:50:44.281Z,79046.66
2022-12-18T21:00:47.730Z,79066.91
2022-12-18T21:10:56.796Z,79054.75
2022-12-18T21:21:07.161Z,79062.84
2022-12-18T21:31:14.415Z,79054.75
2022-12-18T21:41:41.875Z,79030.44
2022-12-18T21:51:45.409Z,79034.50
2022-12-18T22:01:55.557Z,78993.97
2022-12-18T22:12:00.960Z,78967.66
2022-12-18T22:22:03.202Z,78967.66
2022-12-18T22:32:08.605Z,78973.72
2022-12-18T22:42:12.851Z,78963.59
2022-12-18T22:52:17.049Z,78949.44
2022-12-18T23:02:23.296Z,78996.00
2022-12-18T23:12:31.950Z,78969.69
2022-12-18T23:22:41.046Z,79014.25
2022-12-18T23:32:47.354Z,79006.13
2022-12-18T23:42:49.471Z,79010.19
2022-12-18T23:52:53.794Z,79010.19
